Time;durP1;ratioP1;P1;durP2;ratioP2;P2;SDS_P1;SDS_P2;PMS_P1;PMS_P2;Temp;Humidity;BMP_temperature;BMP_pressure;BME280_temperature;BME280_humidity;BME280_pressure;Samples;Min_cycle;Max_cycle;Signal;HPM_P1;HPM_P2
2023/03/16 00:00:02;;;;;;;;;;;6.20;83.90;;;-151.14;100.00;62537.16;5019359;28;19921;-82
2023/03/16 00:02:32;;;;;;;;;;;6.20;83.90;;;-151.14;100.00;62537.16;5034448;28;19935;-82
2023/03/16 00:05:00;;;;;;;;;;;6.20;83.80;;;-151.14;100.00;62537.16;5052247;28;20123;-83
2023/03/16 00:07:28;;;;;;;;;;;6.20;83.60;;;-151.14;100.00;62537.16;5051812;28;20208;-82
2023/03/16 00:09:56;;;;;;;;;;;6.20;83.70;;;-151.14;100.00;62537.16;5053193;28;19927;-82
2023/03/16 00:12:25;;;;;;;;;;;6.20;83.80;;;-151.14;100.00;62537.16;5068861;28;19927;-82
2023/03/16 00:14:54;;;;;;;;;;;6.20;83.60;;;-151.14;100.00;62537.16;5035569;28;20098;-82
2023/03/16 00:17:22;;;;;;;;;;;6.20;83.60;;;-151.14;100.00;62537.16;5051822;28;19921;-82
2023/03/16 00:19:53;;;;;;;;;;;6.20;83.60;;;-151.14;100.00;62537.16;5052838;28;19927;-82
2023/03/16 00:22:21;;;;;;;;;;;6.20;83.70;;;-151.14;100.00;62537.16;5068642;28;19947;-82
2023/03/16 00:24:49;;;;;;;;;;;6.20;83.70;;;-151.14;100.00;62537.16;5053111;28;19927;-82
2023/03/16 00:27:17;;;;;;;;;;;6.20;83.50;;;-151.14;100.00;62537.16;5051807;28;19921;-82
2023/03/16 00:29:46;;;;;;;;;;;6.20;83.70;;;-151.14;100.00;62537.16;5018364;28;19921;-82
2023/03/16 00:32:17;;;;;;;;;;;6.20;83.60;;;-151.14;100.00;62537.16;5052701;28;19921;-82
2023/03/16 00:34:45;;;;;;;;;;;6.20;82.80;;;-151.14;100.00;62537.16;5035334;28;20132;-82
2023/03/16 00:37:14;;;;;;;;;;;6.10;83.00;;;-151.14;100.00;62537.16;5051832;28;19929;-82
2023/03/16 00:39:42;;;;;;;;;;;6.20;83.50;;;-151.14;100.00;62537.16;5034543;28;19921;-83
2023/03/16 00:42:14;;;;;;;;;;;6.10;83.50;;;-151.14;100.00;62537.16;5052842;28;20227;-82
2023/03/16 00:44:42;;;;;;;;;;;6.20;83.60;;;-151.14;100.00;62537.16;5068372;28;19921;-82
2023/03/16 00:47:13;;;;;;;;;;;6.20;83.60;;;-151.14;100.00;62537.16;5034765;28;19921;-82
2023/03/16 00:49:43;;;;;;;;;;;6.10;83.90;;;-151.14;100.00;62537.16;5067735;28;19920;-83
2023/03/16 00:52:13;;;;;;;;;;;6.20;83.80;;;-151.14;100.00;62537.16;5034786;28;19921;-82
2023/03/16 00:54:42;;;;;;;;;;;6.20;83.80;;;-151.14;100.00;62537.16;5034848;28;19927;-82
2023/03/16 00:57:11;;;;;;;;;;;6.10;83.40;;;-151.14;100.00;62537.16;5051416;28;19921;-82
2023/03/16 00:59:39;;;;;;;;;;;6.10;83.80;;;-151.14;100.00;62537.16;5050682;28;19920;-82
2023/03/16 01:02:07;;;;;;;;;;;6.10;83.70;;;-151.14;100.00;62537.16;5034608;28;19921;-82
2023/03/16 01:04:35;;;;;;;;;;;6.20;83.50;;;-151.14;100.00;62537.16;5051123;28;19966;-82
2023/03/16 01:07:05;;;;;;;;;;;6.10;83.70;;;-151.14;100.00;62537.16;5018273;28;19921;-82
2023/03/16 01:09:35;;;;;;;;;;;6.10;83.80;;;-151.14;100.00;62537.16;5050578;28;19921;-82
2023/03/16 01:12:05;;;;;;;;;;;6.10;83.60;;;-151.14;100.00;62537.16;5067817;28;19920;-82
2023/03/16 01:14:33;;;;;;;;;;;6.10;83.70;;;-151.14;100.00;62537.16;5034635;28;19921;-83
2023/03/16 01:17:01;;;;;;;;;;;6.10;83.90;;;-151.14;100.00;62537.16;5034742;28;19921;-82
2023/03/16 01:19:32;;;;;;;;;;;6.10;83.80;;;-151.14;100.00;62537.16;5017084;28;19964;-82
2023/03/16 01:22:00;;;;;;;;;;;6.20;84.40;;;-151.14;100.00;62537.16;5034671;28;19921;-82
2023/03/16 01:24:30;;;;;;;;;;;6.20;83.60;;;-151.14;100.00;62537.16;5034199;28;19927;-83
2023/03/16 01:26:58;;;;;;;;;;;6.10;83.80;;;-151.14;100.00;62537.16;5067703;28;20209;-82
2023/03/16 01:29:26;;;;;;;;;;;6.20;83.90;;;-151.14;100.00;62537.16;5050280;28;19935;-82
2023/03/16 01:31:56;;;;;;;;;;;6.10;83.80;;;-151.14;100.00;62537.16;5050977;28;19909;-82
2023/03/16 01:34:24;;;;;;;;;;;6.10;83.90;;;-151.14;100.00;62537.16;5050713;28;19927;-82
2023/03/16 01:36:53;;;;;;;;;;;6.10;83.80;;;-151.14;100.00;62537.16;5034211;28;19927;-82
2023/03/16 01:39:32;;;;;;;;;;;6.20;83.90;;;-151.14;100.00;62537.16;5066804;28;19925;-82
2023/03/16 01:42:00;;;;;;;;;;;6.10;83.90;;;-151.14;100.00;62537.16;5067404;28;19920;-82
2023/03/16 01:44:31;;;;;;;;;;;6.10;83.90;;;-151.14;100.00;62537.16;5017449;28;19927;-82
2023/03/16 01:47:04;;;;;;;;;;;6.10;83.90;;;-151.14;100.00;62537.16;5034359;28;20115;-82
2023/03/16 01:49:33;;;;;;;;;;;6.10;83.80;;;-151.14;100.00;62537.16;5033235;28;20119;-82
2023/03/16 01:52:04;;;;;;;;;;;6.10;83.80;;;-151.14;100.00;62537.16;5034070;28;19920;-82
2023/03/16 01:54:35;;;;;;;;;;;6.10;84.00;;;-151.14;100.00;62537.16;5033754;28;19921;-82
2023/03/16 01:57:06;;;;;;;;;;;6.10;83.90;;;-151.14;100.00;62537.16;5067285;28;19921;-82
2023/03/16 01:59:36;;;;;;;;;;;6.10;84.20;;;-151.14;100.00;62537.16;5016710;28;20111;-82
2023/03/16 02:02:04;;;;;;;;;;;6.10;84.10;;;-151.14;100.00;62537.16;5033933;28;19983;-82
2023/03/16 02:04:42;;;;;;;;;;;6.10;84.10;;;-151.14;100.00;62537.16;5050278;28;19947;-82
2023/03/16 02:07:10;;;;;;;;;;;6.10;84.20;;;-151.14;100.00;62537.16;5033681;28;19927;-82
2023/03/16 02:09:42;;;;;;;;;;;6.10;84.20;;;-151.14;100.00;62537.16;5033357;28;19921;-82
2023/03/16 02:12:16;;;;;;;;;;;6.10;84.30;;;-151.14;100.00;62537.16;5033661;28;20112;-82
2023/03/16 02:14:45;;;;;;;;;;;6.10;84.30;;;-151.14;100.00;62537.16;5016831;28;19921;-82
2023/03/16 02:17:14;;;;;;;;;;;6.10;84.30;;;-151.14;100.00;62537.16;5033892;28;19928;-82
2023/03/16 02:19:47;;;;;;;;;;;6.10;84.30;;;-151.14;100.00;62537.16;5049540;28;19929;-82
2023/03/16 02:22:15;;;;;;;;;;;6.20;84.30;;;-151.14;100.00;62537.16;5033615;28;19921;-81
2023/03/16 02:24:45;;;;;;;;;;;6.10;84.30;;;-151.14;100.00;62537.16;5017186;28;20254;-82
2023/03/16 02:27:13;;;;;;;;;;;6.10;84.20;;;-151.14;100.00;62537.16;5050873;28;19925;-82
2023/03/16 02:29:55;;;;;;;;;;;6.10;84.30;;;-151.14;100.00;62537.16;5049569;28;19920;-82
2023/03/16 02:32:25;;;;;;;;;;;6.20;84.30;;;-151.14;100.00;62537.16;5016994;28;20200;-82
2023/03/16 02:34:53;;;;;;;;;;;6.20;84.30;;;-151.14;100.00;62537.16;5066617;28;20112;-82
2023/03/16 02:37:21;;;;;;;;;;;6.20;84.30;;;-151.14;100.00;62537.16;5016911;28;19928;-82
2023/03/16 02:39:50;;;;;;;;;;;6.10;84.30;;;-151.14;100.00;62537.16;5016610;28;19921;-82
2023/03/16 02:42:21;;;;;;;;;;;6.10;84.30;;;-151.14;100.00;62537.16;5049801;28;20119;-82
2023/03/16 02:44:52;;;;;;;;;;;6.20;84.30;;;-151.14;100.00;62537.16;5049639;28;19921;-82
2023/03/16 02:47:27;;;;;;;;;;;6.20;84.40;;;-151.14;100.00;62537.16;5033220;28;19921;-82
2023/03/16 02:49:55;;;;;;;;;;;6.20;84.30;;;-151.14;100.00;62537.16;5049283;28;19921;-82
2023/03/16 02:52:23;;;;;;;;;;;6.20;84.40;;;-151.14;100.00;62537.16;5049622;28;19921;-82
2023/03/16 02:54:51;;;;;;;;;;;6.20;84.40;;;-151.14;100.00;62537.16;5066448;28;20120;-82
2023/03/16 02:57:19;;;;;;;;;;;6.10;84.40;;;-151.14;100.00;62537.16;5016720;28;19944;-82
2023/03/16 02:59:48;;;;;;;;;;;6.20;84.40;;;-151.14;100.00;62537.16;5066096;28;19920;-82
2023/03/16 03:02:16;;;;;;;;;;;6.10;84.40;;;-151.14;100.00;62537.16;5016654;28;19921;-82
2023/03/16 03:04:46;;;;;;;;;;;6.20;84.40;;;-151.14;100.00;62537.16;5016672;28;19927;-82
2023/03/16 03:07:14;;;;;;;;;;;6.20;84.40;;;-151.14;100.00;62537.16;5032913;28;20209;-82
2023/03/16 03:09:56;;;;;;;;;;;6.10;84.40;;;-151.14;100.00;62537.16;5016633;28;20209;-82
2023/03/16 03:12:24;;;;;;;;;;;6.20;84.40;;;-151.14;100.00;62537.16;5032527;28;19920;-82
2023/03/16 03:14:52;;;;;;;;;;;6.10;84.40;;;-151.14;100.00;62537.16;5016492;28;19921;-82
2023/03/16 03:17:29;;;;;;;;;;;6.10;84.40;;;-151.14;100.00;62537.16;5049238;28;19921;-82
2023/03/16 03:20:01;;;;;;;;;;;6.20;84.40;;;-151.14;100.00;62537.16;5032825;28;19942;-81
2023/03/16 03:22:29;;;;;;;;;;;6.10;84.50;;;-151.14;100.00;62537.16;5049335;28;20462;-82
2023/03/16 03:24:57;;;;;;;;;;;6.20;84.50;;;-151.14;100.00;62537.16;5032796;28;20230;-82
2023/03/16 03:27:25;;;;;;;;;;;6.20;84.50;;;-151.14;100.00;62537.16;5048875;28;19921;-82
2023/03/16 03:29:55;;;;;;;;;;;6.10;84.60;;;-151.14;100.00;62537.16;5032452;28;19927;-83
2023/03/16 03:32:23;;;;;;;;;;;6.10;84.50;;;-151.14;100.00;62537.16;5016079;28;19921;-82
2023/03/16 03:34:51;;;;;;;;;;;6.20;84.40;;;-151.14;100.00;62537.16;5016408;28;19933;-82
2023/03/16 03:37:21;;;;;;;;;;;6.20;84.50;;;-151.14;100.00;62537.16;5032761;28;19920;-82
2023/03/16 03:39:50;;;;;;;;;;;6.20;84.50;;;-151.14;100.00;62537.16;5035276;28;20132;-82
2023/03/16 03:42:18;;;;;;;;;;;6.20;84.40;;;-151.14;100.00;62537.16;5034980;28;19921;-82
2023/03/16 03:44:46;;;;;;;;;;;6.20;84.50;;;-151.14;100.00;62537.16;5069039;28;19921;-82
2023/03/16 03:47:14;;;;;;;;;;;6.20;84.50;;;-151.14;100.00;62537.16;5019403;28;19927;-81
2023/03/16 03:49:42;;;;;;;;;;;6.10;84.40;;;-151.14;100.00;62537.16;5035506;28;20252;-82
2023/03/16 03:52:11;;;;;;;;;;;6.20;84.50;;;-151.14;100.00;62537.16;5035639;28;19921;-82
2023/03/16 03:54:40;;;;;;;;;;;6.20;84.60;;;-151.14;100.00;62537.16;5052448;28;20238;-82
2023/03/16 03:57:14;;;;;;;;;;;6.20;84.50;;;-151.14;100.00;62537.16;5052013;28;19921;-82
2023/03/16 03:59:42;;;;;;;;;;;6.20;84.50;;;-151.14;100.00;62537.16;5018991;28;19927;-82
2023/03/16 04:02:25;;;;;;;;;;;6.20;84.60;;;-151.14;100.00;62537.16;5052126;28;19928;-82
2023/03/16 04:04:55;;;;;;;;;;;6.20;84.50;;;-151.14;100.00;62537.16;5035927;28;19920;-82
2023/03/16 04:07:23;;;;;;;;;;;6.10;84.50;;;-151.14;100.00;62537.16;5035166;28;20203;-82
2023/03/16 04:09:56;;;;;;;;;;;6.20;84.50;;;-151.14;100.00;62537.16;5035450;28;20231;-82
2023/03/16 04:12:30;;;;;;;;;;;6.10;85.30;;;-151.14;100.00;62537.16;5051984;28;19921;-82
2023/03/16 04:14:58;;;;;;;;;;;6.10;84.50;;;-151.14;100.00;62537.16;5068800;28;19921;-81
2023/03/16 04:17:28;;;;;;;;;;;6.10;84.50;;;-151.14;100.00;62537.16;5035115;28;19927;-82
2023/03/16 04:20:00;;;;;;;;;;;6.10;84.60;;;-151.14;100.00;62537.16;5068890;28;19953;-82
2023/03/16 04:22:29;;;;;;;;;;;6.20;84.60;;;-151.14;100.00;62537.16;5051695;28;19927;-82
2023/03/16 04:25:01;;;;;;;;;;;6.20;84.50;;;-151.14;100.00;62537.16;5052021;28;19935;-82
2023/03/16 04:27:35;;;;;;;;;;;6.20;84.60;;;-151.14;100.00;62537.16;5051269;28;20245;-82
2023/03/16 04:30:04;;;;;;;;;;;6.20;84.60;;;-151.14;100.00;62537.16;5051763;28;19927;-82
2023/03/16 04:32:33;;;;;;;;;;;6.20;84.60;;;-151.14;100.00;62537.16;5052764;28;19921;-82
2023/03/16 04:35:01;;;;;;;;;;;6.20;84.60;;;-151.14;100.00;62537.16;5051520;28;19921;-82
2023/03/16 04:37:42;;;;;;;;;;;6.20;84.60;;;-151.14;100.00;62537.16;5051333;28;19927;-82
2023/03/16 04:40:15;;;;;;;;;;;6.20;84.60;;;-151.14;100.00;62537.16;5051661;28;19921;-82
2023/03/16 04:42:46;;;;;;;;;;;6.20;84.60;;;-151.14;100.00;62537.16;5068131;28;20094;-82
2023/03/16 04:45:19;;;;;;;;;;;6.10;84.60;;;-151.14;100.00;62537.16;5068541;28;19927;-82
2023/03/16 04:47:49;;;;;;;;;;;6.20;84.60;;;-151.14;100.00;62537.16;5051183;28;19921;-81
2023/03/16 04:50:18;;;;;;;;;;;6.20;84.60;;;-151.14;100.00;62537.16;5018179;28;19921;-82
2023/03/16 04:52:51;;;;;;;;;;;6.10;84.60;;;-151.14;100.00;62537.16;5018506;28;20122;-81
2023/03/16 04:55:21;;;;;;;;;;;6.20;84.60;;;-151.14;100.00;62537.16;5068340;28;20235;-82
2023/03/16 04:57:51;;;;;;;;;;;6.20;84.50;;;-151.14;100.00;62537.16;5017983;28;19929;-82
2023/03/16 05:00:22;;;;;;;;;;;6.10;84.60;;;-151.14;100.00;62537.16;5051221;28;19921;-82
2023/03/16 05:03:20;;;;;;;;;;;6.10;84.50;;;-151.14;100.00;62537.16;5051837;28;19936;-82
2023/03/16 05:05:48;;;;;;;;;;;6.20;84.50;;;-151.14;100.00;62537.16;5051116;28;20248;-82
2023/03/16 05:08:17;;;;;;;;;;;6.10;84.60;;;-151.14;100.00;62537.16;5034478;28;19921;-82
2023/03/16 05:10:50;;;;;;;;;;;6.20;84.50;;;-151.14;100.00;62537.16;5067940;28;20098;-82
2023/03/16 05:13:19;;;;;;;;;;;6.10;84.60;;;-151.14;100.00;62537.16;5067582;28;19921;-82
2023/03/16 05:15:49;;;;;;;;;;;6.20;84.70;;;-151.14;100.00;62537.16;5018205;28;19921;-82
2023/03/16 05:18:28;;;;;;;;;;;6.20;84.60;;;-151.14;100.00;62537.16;5050556;28;19927;-82
2023/03/16 05:20:56;;;;;;;;;;;6.10;84.60;;;-151.14;100.00;62537.16;5067885;28;19927;-82
2023/03/16 05:23:28;;;;;;;;;;;6.20;84.70;;;-151.14;100.00;62537.16;5050599;28;19935;-82
2023/03/16 05:26:02;;;;;;;;;;;6.10;84.60;;;-151.14;100.00;62537.16;5034255;28;19920;-82
2023/03/16 05:28:33;;;;;;;;;;;6.10;84.70;;;-151.14;100.00;62537.16;5066660;28;19921;-82
2023/03/16 05:31:05;;;;;;;;;;;6.20;84.60;;;-151.14;100.00;62537.16;5017944;28;19921;-82
2023/03/16 05:33:39;;;;;;;;;;;6.10;84.60;;;-151.14;100.00;62537.16;5034328;28;19922;-82
2023/03/16 05:36:10;;;;;;;;;;;6.10;84.70;;;-151.14;100.00;62537.16;5034032;28;19921;-82
2023/03/16 05:38:40;;;;;;;;;;;6.10;84.60;;;-151.14;100.00;62537.16;5033947;28;19921;-82
2023/03/16 05:41:13;;;;;;;;;;;6.20;84.80;;;-151.14;100.00;62537.16;5034159;28;19920;-82
2023/03/16 05:44:04;;;;;;;;;;;6.10;84.70;;;-151.14;100.00;62537.16;5067438;28;19921;-83
2023/03/16 05:47:00;;;;;;;;;;;6.10;84.80;;;-151.14;100.00;62537.16;5034059;28;19920;-83
2023/03/16 05:49:28;;;;;;;;;;;6.10;84.80;;;-151.14;100.00;62537.16;5033478;28;20128;-82
2023/03/16 05:51:58;;;;;;;;;;;6.10;84.70;;;-151.14;100.00;62537.16;5017562;28;19921;-82
2023/03/16 05:54:26;;;;;;;;;;;6.10;84.80;;;-151.14;100.00;62537.16;5050640;28;19921;-82
2023/03/16 05:56:55;;;;;;;;;;;6.20;84.80;;;-151.14;100.00;62537.16;5067354;28;19927;-82
2023/03/16 05:59:23;;;;;;;;;;;6.10;84.80;;;-151.14;100.00;62537.16;5033405;28;19927;-82
2023/03/16 06:01:55;;;;;;;;;;;6.10;84.80;;;-151.14;100.00;62537.16;5016586;28;19925;-83
2023/03/16 06:04:23;;;;;;;;;;;6.10;84.80;;;-151.14;100.00;62537.16;5050506;28;19921;-83
2023/03/16 06:06:51;;;;;;;;;;;6.10;84.80;;;-151.14;100.00;62537.16;5067263;28;19927;-82
2023/03/16 06:09:25;;;;;;;;;;;6.10;84.80;;;-151.14;100.00;62537.16;5049808;28;20208;-83
2023/03/16 06:11:55;;;;;;;;;;;6.10;84.70;;;-151.14;100.00;62537.16;5050240;28;19927;-83
2023/03/16 06:14:23;;;;;;;;;;;6.10;84.70;;;-151.14;100.00;62537.16;5017524;28;19921;-83
2023/03/16 06:16:52;;;;;;;;;;;6.10;84.70;;;-151.14;100.00;62537.16;5017089;28;20220;-83
2023/03/16 06:19:21;;;;;;;;;;;6.10;84.80;;;-151.14;100.00;62537.16;5032925;28;19920;-82
2023/03/16 06:21:54;;;;;;;;;;;6.10;84.70;;;-151.14;100.00;62537.16;5049841;28;20127;-82
2023/03/16 06:24:22;;;;;;;;;;;6.10;84.80;;;-151.14;100.00;62537.16;5050145;28;19921;-82
2023/03/16 06:26:52;;;;;;;;;;;6.10;84.80;;;-151.14;100.00;62537.16;5033497;28;19927;-82
2023/03/16 06:29:24;;;;;;;;;;;6.10;84.70;;;-151.14;100.00;62537.16;5065909;28;19927;-82
2023/03/16 06:31:53;;;;;;;;;;;6.10;84.80;;;-151.14;100.00;62537.16;5049595;28;19921;-82
2023/03/16 06:34:22;;;;;;;;;;;6.10;84.80;;;-151.14;100.00;62537.16;5050052;28;19920;-82
2023/03/16 06:36:50;;;;;;;;;;;6.10;84.80;;;-151.14;100.00;62537.16;5033530;28;19927;-82
2023/03/16 06:39:18;;;;;;;;;;;6.10;84.70;;;-151.14;100.00;62537.16;5032637;28;19921;-82
2023/03/16 06:41:49;;;;;;;;;;;6.10;84.70;;;-151.14;100.00;62537.16;5033318;28;19927;-82
2023/03/16 06:44:18;;;;;;;;;;;6.10;84.70;;;-151.14;100.00;62537.16;5033472;28;19921;-82
2023/03/16 06:47:05;;;;;;;;;;;6.10;84.80;;;-151.14;100.00;62537.16;5033083;28;19921;-82
2023/03/16 06:49:33;;;;;;;;;;;6.20;84.80;;;-151.14;100.00;62537.16;5048934;28;19920;-82
2023/03/16 06:52:03;;;;;;;;;;;6.10;84.90;;;-151.14;100.00;62537.16;5049898;28;19921;-82
2023/03/16 06:54:34;;;;;;;;;;;6.10;84.80;;;-151.14;100.00;62537.16;5049776;28;19927;-82
2023/03/16 06:57:02;;;;;;;;;;;6.10;85.60;;;-151.14;100.00;62537.16;5016776;28;19921;-82
2023/03/16 06:59:30;;;;;;;;;;;6.10;84.80;;;-151.14;100.00;62537.16;5032737;28;19921;-82
2023/03/16 07:01:58;;;;;;;;;;;6.10;84.60;;;-151.14;100.00;62537.16;5033210;28;19927;-82
2023/03/16 07:04:28;;;;;;;;;;;6.10;84.60;;;-151.14;100.00;62537.16;5049462;28;20120;-83
2023/03/16 07:06:56;;;;;;;;;;;6.10;84.50;;;-151.14;100.00;62537.16;5049637;28;19939;-83
2023/03/16 07:09:24;;;;;;;;;;;6.10;85.40;;;-151.14;100.00;62537.16;5032463;28;19928;-83
2023/03/16 07:11:52;;;;;;;;;;;6.10;84.50;;;-151.14;100.00;62537.16;5051694;28;19921;-83
2023/03/16 07:14:22;;;;;;;;;;;6.10;84.50;;;-151.14;100.00;62537.16;5069631;28;19927;-83
2023/03/16 07:16:51;;;;;;;;;;;6.10;84.40;;;-151.14;100.00;62537.16;5019923;28;19941;-83
2023/03/16 07:19:21;;;;;;;;;;;6.10;84.40;;;-151.14;100.00;62537.16;5019399;28;19924;-83
2023/03/16 07:21:51;;;;;;;;;;;6.10;84.30;;;-151.14;100.00;62537.16;5052849;28;19929;-83
2023/03/16 07:24:21;;;;;;;;;;;6.10;84.60;;;-151.14;100.00;62537.16;5019721;28;19921;-82
2023/03/16 07:26:49;;;;;;;;;;;6.10;84.70;;;-151.14;100.00;62537.16;5020106;28;19921;-83
2023/03/16 07:29:26;;;;;;;;;;;6.10;84.50;;;-151.14;100.00;62537.16;5068973;28;19921;-83
2023/03/16 07:31:54;;;;;;;;;;;6.10;84.40;;;-151.14;100.00;62537.16;5036521;28;19921;-83
2023/03/16 07:34:27;;;;;;;;;;;6.10;84.40;;;-151.14;100.00;62537.16;5035867;28;19943;-83
2023/03/16 07:36:59;;;;;;;;;;;6.10;84.60;;;-151.14;100.00;62537.16;5052770;28;19928;-83
2023/03/16 07:39:30;;;;;;;;;;;6.10;84.50;;;-151.14;100.00;62537.16;5035370;28;19920;-83
2023/03/16 07:42:06;;;;;;;;;;;6.10;84.40;;;-151.14;100.00;62537.16;5019620;28;20115;-83
2023/03/16 07:44:59;;;;;;;;;;;6.10;84.40;;;-151.14;100.00;62537.16;5019387;28;19920;-84
2023/03/16 07:47:29;;;;;;;;;;;6.10;84.30;;;-151.14;100.00;62537.16;5035804;28;20143;-83
2023/03/16 07:50:00;;;;;;;;;;;6.10;84.30;;;-151.14;100.00;62537.16;5052377;28;19935;-83
2023/03/16 07:52:30;;;;;;;;;;;6.10;84.30;;;-151.14;100.00;62537.16;5053403;28;20120;-83
2023/03/16 07:54:58;;;;;;;;;;;6.10;84.20;;;-151.14;100.00;62537.16;5035910;28;19979;-83
2023/03/16 07:57:26;;;;;;;;;;;6.10;84.30;;;-151.14;100.00;62537.16;5035385;28;19927;-83
2023/03/16 07:59:55;;;;;;;;;;;6.10;84.00;;;-151.14;100.00;62537.16;5051758;28;20124;-83
2023/03/16 08:02:22;;;;;;;;;;;6.10;83.90;;;-151.14;100.00;62537.16;5053472;28;19928;-83
2023/03/16 08:04:51;;;;;;;;;;;6.10;84.00;;;-151.14;100.00;62537.16;5035265;28;20225;-83
2023/03/16 08:07:20;;;;;;;;;;;6.10;83.80;;;-151.14;100.00;62537.16;5035474;28;19921;-84
2023/03/16 08:10:02;;;;;;;;;;;6.10;83.60;;;-151.14;100.00;62537.16;5051754;28;19931;-84
2023/03/16 08:12:40;;;;;;;;;;;6.10;83.80;;;-151.14;100.00;62537.16;5035360;28;19927;-84
2023/03/16 08:15:10;;;;;;;;;;;6.10;83.70;;;-151.14;100.00;62537.16;5051943;28;20144;-83
2023/03/16 08:17:40;;;;;;;;;;;6.10;83.70;;;-151.14;100.00;62537.16;5018565;28;19935;-83
2023/03/16 08:20:13;;;;;;;;;;;6.10;84.00;;;-151.14;100.00;62537.16;5018857;28;19921;-84
2023/03/16 08:22:45;;;;;;;;;;;6.10;83.90;;;-151.14;100.00;62537.16;5068647;28;19921;-83
2023/03/16 08:25:18;;;;;;;;;;;6.10;84.00;;;-151.14;100.00;62537.16;5051461;28;19927;-83
2023/03/16 08:27:56;;;;;;;;;;;6.10;83.80;;;-151.14;100.00;62537.16;5068210;28;19927;-83
2023/03/16 08:30:25;;;;;;;;;;;6.10;83.80;;;-151.14;100.00;62537.16;5034929;28;20231;-83
2023/03/16 08:33:10;;;;;;;;;;;6.10;83.50;;;-151.14;100.00;62537.16;5051686;28;19927;-83
2023/03/16 08:35:41;;;;;;;;;;;6.10;83.70;;;-151.14;100.00;62537.16;5051677;28;20220;-84
2023/03/16 08:38:09;;;;;;;;;;;6.10;83.80;;;-151.14;100.00;62537.16;5034500;28;20209;-84
2023/03/16 08:40:40;;;;;;;;;;;6.10;83.50;;;-151.14;100.00;62537.16;5034808;28;19921;-83
2023/03/16 08:43:10;;;;;;;;;;;6.10;83.60;;;-151.14;100.00;62537.16;5051697;28;20098;-83
2023/03/16 08:45:39;;;;;;;;;;;6.10;83.60;;;-151.14;100.00;62537.16;5034743;28;19927;-83
2023/03/16 08:48:07;;;;;;;;;;;6.10;83.60;;;-151.14;100.00;62537.16;5034389;28;19921;-84
2023/03/16 08:50:36;;;;;;;;;;;6.10;83.60;;;-151.14;100.00;62537.16;5018536;28;19921;-84
2023/03/16 08:53:04;;;;;;;;;;;6.10;83.80;;;-151.14;100.00;62537.16;5034680;28;19921;-83
2023/03/16 08:55:32;;;;;;;;;;;6.10;83.70;;;-151.14;100.00;62537.16;5034934;28;19927;-83
2023/03/16 08:58:01;;;;;;;;;;;6.10;83.70;;;-151.14;100.00;62537.16;5017871;28;19927;-83
2023/03/16 09:00:29;;;;;;;;;;;6.10;83.70;;;-151.14;100.00;62537.16;5034453;28;19921;-83
2023/03/16 09:02:57;;;;;;;;;;;6.10;83.80;;;-151.14;100.00;62537.16;5034470;28;19921;-83
2023/03/16 09:05:25;;;;;;;;;;;6.10;83.90;;;-151.14;100.00;62537.16;5067683;28;19920;-84
2023/03/16 09:07:53;;;;;;;;;;;6.10;84.00;;;-151.14;100.00;62537.16;5017537;28;20224;-84
2023/03/16 09:10:21;;;;;;;;;;;6.10;83.90;;;-151.14;100.00;62537.16;5052021;28;19921;-83
2023/03/16 09:12:50;;;;;;;;;;;6.10;83.90;;;-151.14;100.00;62537.16;5050900;28;19920;-83
2023/03/16 09:15:20;;;;;;;;;;;6.10;84.00;;;-151.14;100.00;62537.16;5034529;28;19920;-83
2023/03/16 09:17:49;;;;;;;;;;;6.10;84.00;;;-151.14;100.00;62537.16;5051586;28;19928;-84
2023/03/16 09:20:17;;;;;;;;;;;6.10;83.90;;;-151.14;100.00;62537.16;5050839;28;19927;-84
2023/03/16 09:22:45;;;;;;;;;;;6.10;83.90;;;-151.14;100.00;62537.16;5052051;28;19927;-84
2023/03/16 09:25:14;;;;;;;;;;;6.10;84.10;;;-151.14;100.00;62537.16;5051088;28;19927;-84
2023/03/16 09:27:43;;;;;;;;;;;6.10;84.00;;;-151.14;100.00;62537.16;5051261;28;19920;-84
2023/03/16 09:30:12;;;;;;;;;;;6.10;84.00;;;-151.14;100.00;62537.16;5034383;28;19943;-83
2023/03/16 09:32:41;;;;;;;;;;;6.10;83.80;;;-151.14;100.00;62537.16;5033956;28;19927;-84
2023/03/16 09:35:10;;;;;;;;;;;6.10;84.10;;;-151.14;100.00;62537.16;5016867;28;19921;-84
2023/03/16 09:37:38;;;;;;;;;;;6.10;84.30;;;-151.14;100.00;62537.16;5051449;28;20224;-83
2023/03/16 09:40:08;;;;;;;;;;;6.10;84.20;;;-151.14;100.00;62537.16;5051889;28;19925;-83
2023/03/16 09:42:37;;;;;;;;;;;6.10;84.00;;;-151.14;100.00;62537.16;5051873;28;19925;-83
2023/03/16 09:45:09;;;;;;;;;;;6.20;84.20;;;-151.14;100.00;62537.16;5017797;28;19967;-83
2023/03/16 09:47:37;;;;;;;;;;;6.10;84.20;;;-151.14;100.00;62537.16;5051382;28;19920;-83
2023/03/16 09:50:08;;;;;;;;;;;6.20;84.10;;;-151.14;100.00;62537.16;5051783;28;19935;-84
2023/03/16 09:52:40;;;;;;;;;;;6.20;84.00;;;-151.14;100.00;62537.16;5033656;28;19920;-83
2023/03/16 09:55:16;;;;;;;;;;;6.20;84.30;;;-151.14;100.00;62537.16;5051837;28;19927;-84
2023/03/16 09:57:45;;;;;;;;;;;6.20;84.30;;;-151.14;100.00;62537.16;5049967;28;19924;-83
2023/03/16 10:00:16;;;;;;;;;;;6.20;84.10;;;-151.14;100.00;62537.16;5017406;28;19927;-84
2023/03/16 10:02:51;;;;;;;;;;;6.20;84.10;;;-151.14;100.00;62537.16;5033984;28;19920;-83
2023/03/16 10:05:22;;;;;;;;;;;6.20;84.40;;;-151.14;100.00;62537.16;5051483;28;19927;-83
2023/03/16 10:07:54;;;;;;;;;;;6.20;84.20;;;-151.14;100.00;62537.16;5033312;28;19927;-83
2023/03/16 10:10:37;;;;;;;;;;;6.20;84.30;;;-151.14;100.00;62537.16;5051388;28;20112;-83
2023/03/16 10:13:05;;;;;;;;;;;6.20;84.30;;;-151.14;100.00;62537.16;5033620;28;19921;-83
2023/03/16 10:15:33;;;;;;;;;;;6.20;84.30;;;-151.14;100.00;62537.16;5050994;28;19927;-83
2023/03/16 10:18:05;;;;;;;;;;;6.20;84.40;;;-151.14;100.00;62537.16;5049843;28;19927;-83
2023/03/16 10:20:35;;;;;;;;;;;6.20;84.30;;;-151.14;100.00;62537.16;5051379;28;19921;-83
2023/03/16 10:23:19;;;;;;;;;;;6.20;84.30;;;-151.14;100.00;62537.16;5066863;28;19921;-84
2023/03/16 10:25:48;;;;;;;;;;;6.20;84.20;;;-151.14;100.00;62537.16;5051019;28;20204;-83
2023/03/16 10:28:17;;;;;;;;;;;6.20;84.30;;;-151.14;100.00;62537.16;5066220;28;19921;-83
2023/03/16 10:30:45;;;;;;;;;;;6.20;84.40;;;-151.14;100.00;62537.16;5050177;28;19927;-84
2023/03/16 10:33:18;;;;;;;;;;;6.20;84.40;;;-151.14;100.00;62537.16;5033348;28;19921;-83
2023/03/16 10:35:49;;;;;;;;;;;6.20;84.30;;;-151.14;100.00;62537.16;5049845;28;20097;-83
2023/03/16 10:38:31;;;;;;;;;;;6.20;84.30;;;-151.14;100.00;62537.16;5016621;28;19927;-83
2023/03/16 10:41:00;;;;;;;;;;;6.20;84.40;;;-151.14;100.00;62537.16;5033455;28;19921;-84
2023/03/16 10:43:28;;;;;;;;;;;6.20;84.40;;;-151.14;100.00;62537.16;5050913;28;19929;-83
2023/03/16 10:45:59;;;;;;;;;;;6.20;84.30;;;-151.14;100.00;62537.16;5051026;28;19920;-83
2023/03/16 10:48:27;;;;;;;;;;;6.20;84.40;;;-151.14;100.00;62537.16;5053631;28;19927;-83
2023/03/16 10:50:58;;;;;;;;;;;6.20;84.40;;;-151.14;100.00;62537.16;5054206;28;19921;-83
2023/03/16 10:53:28;;;;;;;;;;;6.20;84.40;;;-151.14;100.00;62537.16;5053281;28;19921;-83
2023/03/16 10:56:00;;;;;;;;;;;6.20;84.50;;;-151.14;100.00;62537.16;5054248;28;19928;-83
2023/03/16 10:58:31;;;;;;;;;;;6.20;84.40;;;-151.14;100.00;62537.16;5036115;28;19921;-83
2023/03/16 11:00:59;;;;;;;;;;;6.20;84.40;;;-151.14;100.00;62537.16;5069894;28;19921;-83
2023/03/16 11:03:27;;;;;;;;;;;6.20;84.30;;;-151.14;100.00;62537.16;5036370;28;19921;-83
2023/03/16 11:06:01;;;;;;;;;;;6.20;84.20;;;-151.14;100.00;62537.16;5054022;28;20234;-83
2023/03/16 11:08:32;;;;;;;;;;;6.20;84.30;;;-151.14;100.00;62537.16;5069402;28;20116;-83
2023/03/16 11:11:01;;;;;;;;;;;6.20;84.30;;;-151.14;100.00;62537.16;5069570;28;19927;-83
2023/03/16 11:13:33;;;;;;;;;;;6.20;84.30;;;-151.14;100.00;62537.16;5054119;28;19921;-83
2023/03/16 11:16:04;;;;;;;;;;;6.20;84.10;;;-151.14;100.00;62537.16;5052896;28;19920;-83